sensor_id;sensor_type;location;lat;lon;timestamp;pressure;altitude;pressure_sealevel;temperature;humidity
37878;BME280;23715;53.652;8.516;2023-08-21T00:01:03;102437.17;;;19.89;100.00
37878;BME280;23715;53.652;8.516;2023-08-21T00:06:04;102430.67;;;19.72;100.00
37878;BME280;23715;53.652;8.516;2023-08-21T00:11:04;102426.77;;;19.75;100.00
37878;BME280;23715;53.652;8.516;2023-08-21T00:16:04;102423.59;;;19.38;100.00
37878;BME280;23715;53.652;8.516;2023-08-21T00:21:05;102428.28;;;19.87;100.00
37878;BME280;23715;53.652;8.516;2023-08-21T00:26:05;102431.27;;;19.66;100.00
37878;BME280;23715;53.652;8.516;2023-08-21T00:31:06;102437.47;;;19.86;100.00
37878;BME280;23715;53.652;8.516;2023-08-21T00:36:06;102435.41;;;19.84;100.00
37878;BME280;23715;53.652;8.516;2023-08-21T00:41:06;102443.48;;;19.89;100.00
37878;BME280;23715;53.652;8.516;2023-08-21T00:46:07;102436.43;;;19.83;100.00
37878;BME280;23715;53.652;8.516;2023-08-21T00:51:07;102441.59;;;19.72;100.00
37878;BME280;23715;53.652;8.516;2023-08-21T00:56:08;102444.36;;;19.90;100.00
37878;BME280;23715;53.652;8.516;2023-08-21T01:01:10;102446.98;;;19.96;100.00
37878;BME280;23715;53.652;8.516;2023-08-21T01:06:11;102444.54;;;20.11;100.00
37878;BME280;23715;53.652;8.516;2023-08-21T01:11:28;102455.47;;;20.11;100.00
37878;BME280;23715;53.652;8.516;2023-08-21T01:16:28;102460.52;;;20.19;100.00
37878;BME280;23715;53.652;8.516;2023-08-21T01:21:29;102465.59;;;20.32;100.00
37878;BME280;23715;53.652;8.516;2023-08-21T01:26:30;102469.45;;;20.43;100.00
37878;BME280;23715;53.652;8.516;2023-08-21T01:31:35;102470.72;;;20.53;100.00
37878;BME280;23715;53.652;8.516;2023-08-21T01:36:38;102467.95;;;20.67;100.00
37878;BME280;23715;53.652;8.516;2023-08-21T01:41:40;102462.15;;;20.66;100.00
37878;BME280;23715;53.652;8.516;2023-08-21T01:46:41;102460.59;;;20.67;100.00
37878;BME280;23715;53.652;8.516;2023-08-21T01:51:41;102468.27;;;20.46;100.00
37878;BME280;23715;53.652;8.516;2023-08-21T01:56:41;102488.88;;;20.40;100.00
37878;BME280;23715;53.652;8.516;2023-08-21T02:01:41;102487.09;;;20.13;100.00
37878;BME280;23715;53.652;8.516;2023-08-21T02:06:41;102485.06;;;20.01;100.00
37878;BME280;23715;53.652;8.516;2023-08-21T02:11:43;102481.73;;;19.76;100.00
37878;BME280;23715;53.652;8.516;2023-08-21T02:16:42;102485.61;;;19.87;100.00
37878;BME280;23715;53.652;8.516;2023-08-21T02:21:43;102506.36;;;20.12;100.00
37878;BME280;23715;53.652;8.516;2023-08-21T02:26:43;102530.39;;;20.26;100.00
37878;BME280;23715;53.652;8.516;2023-08-21T02:31:45;102541.06;;;20.33;100.00
37878;BME280;23715;53.652;8.516;2023-08-21T02:36:45;102550.62;;;20.15;100.00
37878;BME280;23715;53.652;8.516;2023-08-21T02:41:45;102563.84;;;20.24;100.00
37878;BME280;23715;53.652;8.516;2023-08-21T02:46:45;102568.19;;;20.31;100.00
37878;BME280;23715;53.652;8.516;2023-08-21T02:51:46;102564.81;;;20.64;100.00
37878;BME280;23715;53.652;8.516;2023-08-21T02:56:46;102559.00;;;20.18;100.00
37878;BME280;23715;53.652;8.516;2023-08-21T03:01:47;102561.55;;;20.33;100.00
37878;BME280;23715;53.652;8.516;2023-08-21T03:06:47;102564.87;;;20.23;100.00
37878;BME280;23715;53.652;8.516;2023-08-21T03:11:48;102559.01;;;20.85;100.00
37878;BME280;23715;53.652;8.516;2023-08-21T03:16:50;102536.08;;;20.82;100.00
37878;BME280;23715;53.652;8.516;2023-08-21T03:21:50;102515.41;;;21.06;100.00
37878;BME280;23715;53.652;8.516;2023-08-21T03:26:51;102516.58;;;20.77;100.00
37878;BME280;23715;53.652;8.516;2023-08-21T03:31:52;102520.67;;;20.41;100.00
37878;BME280;23715;53.652;8.516;2023-08-21T03:36:53;102516.05;;;20.42;100.00
37878;BME280;23715;53.652;8.516;2023-08-21T03:41:54;102525.50;;;20.47;100.00
37878;BME280;23715;53.652;8.516;2023-08-21T03:46:56;102526.50;;;20.46;100.00
37878;BME280;23715;53.652;8.516;2023-08-21T03:51:56;102518.40;;;20.55;100.00
37878;BME280;23715;53.652;8.516;2023-08-21T03:56:56;102514.70;;;20.60;100.00
37878;BME280;23715;53.652;8.516;2023-08-21T04:01:56;102511.80;;;20.43;100.00
37878;BME280;23715;53.652;8.516;2023-08-21T04:06:56;102511.55;;;20.91;100.00
37878;BME280;23715;53.652;8.516;2023-08-21T04:11:56;102498.90;;;20.54;100.00
37878;BME280;23715;53.652;8.516;2023-08-21T04:16:56;102500.30;;;20.58;100.00
37878;BME280;23715;53.652;8.516;2023-08-21T04:21:56;102499.41;;;20.71;100.00
37878;BME280;23715;53.652;8.516;2023-08-21T04:26:56;102497.84;;;20.64;100.00
37878;BME280;23715;53.652;8.516;2023-08-21T04:31:57;102493.72;;;20.86;100.00
37878;BME280;23715;53.652;8.516;2023-08-21T04:36:58;102493.72;;;20.86;100.00
37878;BME280;23715;53.652;8.516;2023-08-21T04:41:59;102487.27;;;20.92;100.00
37878;BME280;23715;53.652;8.516;2023-08-21T04:47:18;102487.67;;;21.01;100.00
37878;BME280;23715;53.652;8.516;2023-08-21T04:52:03;102484.92;;;20.97;100.00
37878;BME280;23715;53.652;8.516;2023-08-21T04:57:04;102476.42;;;21.04;100.00
37878;BME280;23715;53.652;8.516;2023-08-21T05:02:04;102481.13;;;20.94;100.00
37878;BME280;23715;53.652;8.516;2023-08-21T05:07:06;102477.87;;;20.94;100.00
37878;BME280;23715;53.652;8.516;2023-08-21T05:12:08;102483.77;;;21.08;100.00
37878;BME280;23715;53.652;8.516;2023-08-21T05:17:08;102482.27;;;21.13;100.00
37878;BME280;23715;53.652;8.516;2023-08-21T05:22:08;102479.99;;;21.31;100.00
37878;BME280;23715;53.652;8.516;2023-08-21T05:27:09;102475.75;;;21.36;100.00
37878;BME280;23715;53.652;8.516;2023-08-21T05:32:09;102482.00;;;21.55;100.00
37878;BME280;23715;53.652;8.516;2023-08-21T05:37:10;102485.48;;;21.65;100.00
37878;BME280;23715;53.652;8.516;2023-08-21T05:42:11;102492.71;;;21.78;100.00
37878;BME280;23715;53.652;8.516;2023-08-21T05:47:11;102489.27;;;21.72;100.00
37878;BME280;23715;53.652;8.516;2023-08-21T05:52:11;102490.98;;;21.81;100.00
37878;BME280;23715;53.652;8.516;2023-08-21T05:57:12;102496.69;;;22.00;100.00
37878;BME280;23715;53.652;8.516;2023-08-21T06:02:14;102498.27;;;22.07;100.00
37878;BME280;23715;53.652;8.516;2023-08-21T06:07:15;102501.52;;;22.11;100.00
37878;BME280;23715;53.652;8.516;2023-08-21T06:12:15;102500.87;;;22.25;100.00
37878;BME280;23715;53.652;8.516;2023-08-21T06:17:16;102496.69;;;21.96;100.00
37878;BME280;23715;53.652;8.516;2023-08-21T06:22:16;102504.91;;;22.00;100.00
37878;BME280;23715;53.652;8.516;2023-08-21T06:27:16;102511.80;;;22.05;100.00
37878;BME280;23715;53.652;8.516;2023-08-21T06:32:17;102509.22;;;22.07;100.00
37878;BME280;23715;53.652;8.516;2023-08-21T06:37:17;102511.28;;;22.17;100.00
37878;BME280;23715;53.652;8.516;2023-08-21T06:42:19;102515.30;;;22.35;100.00
37878;BME280;23715;53.652;8.516;2023-08-21T06:47:21;102524.38;;;22.32;100.00
37878;BME280;23715;53.652;8.516;2023-08-21T06:52:24;102523.39;;;21.94;100.00
37878;BME280;23715;53.652;8.516;2023-08-21T06:57:28;102530.92;;;21.96;100.00
37878;BME280;23715;53.652;8.516;2023-08-21T07:02:32;102532.27;;;22.55;100.00
37878;BME280;23715;53.652;8.516;2023-08-21T07:07:33;102526.88;;;22.13;100.00
37878;BME280;23715;53.652;8.516;2023-08-21T07:12:33;102533.28;;;22.30;100.00
37878;BME280;23715;53.652;8.516;2023-08-21T07:17:34;102526.27;;;22.35;100.00
37878;BME280;23715;53.652;8.516;2023-08-21T07:22:34;102515.79;;;22.27;100.00
37878;BME280;23715;53.652;8.516;2023-08-21T07:27:34;102510.86;;;22.47;100.00
37878;BME280;23715;53.652;8.516;2023-08-21T07:32:35;102503.80;;;22.89;100.00
37878;BME280;23715;53.652;8.516;2023-08-21T07:37:34;102499.39;;;22.59;100.00
37878;BME280;23715;53.652;8.516;2023-08-21T07:42:35;102497.16;;;22.51;100.00
37878;BME280;23715;53.652;8.516;2023-08-21T07:47:35;102504.67;;;22.94;100.00
37878;BME280;23715;53.652;8.516;2023-08-21T07:52:36;102499.19;;;22.94;100.00
37878;BME280;23715;53.652;8.516;2023-08-21T07:57:36;102497.30;;;23.15;100.00
37878;BME280;23715;53.652;8.516;2023-08-21T08:02:36;102481.86;;;23.10;100.00
37878;BME280;23715;53.652;8.516;2023-08-21T08:07:36;102486.69;;;22.63;100.00
37878;BME280;23715;53.652;8.516;2023-08-21T08:12:36;102474.68;;;22.31;100.00
37878;BME280;23715;53.652;8.516;2023-08-21T08:17:36;102480.52;;;22.77;100.00
37878;BME280;23715;53.652;8.516;2023-08-21T08:22:36;102468.45;;;23.19;100.00
37878;BME280;23715;53.652;8.516;2023-08-21T08:27:39;102468.52;;;23.46;100.00
37878;BME280;23715;53.652;8.516;2023-08-21T08:32:40;102467.13;;;23.50;100.00
37878;BME280;23715;53.652;8.516;2023-08-21T08:37:44;102459.27;;;23.83;100.00
37878;BME280;23715;53.652;8.516;2023-08-21T08:42:44;102462.22;;;23.73;100.00
37878;BME280;23715;53.652;8.516;2023-08-21T08:47:45;102454.35;;;24.01;100.00
37878;BME280;23715;53.652;8.516;2023-08-21T08:52:46;102466.22;;;23.23;100.00
37878;BME280;23715;53.652;8.516;2023-08-21T08:57:47;102461.41;;;23.25;100.00
37878;BME280;23715;53.652;8.516;2023-08-21T09:02:47;102452.28;;;23.72;100.00
37878;BME280;23715;53.652;8.516;2023-08-21T09:08:02;102449.08;;;23.56;100.00
37878;BME280;23715;53.652;8.516;2023-08-21T09:13:19;102448.08;;;23.92;100.00
37878;BME280;23715;53.652;8.516;2023-08-21T09:18:18;102444.17;;;24.10;100.00
37878;BME280;23715;53.652;8.516;2023-08-21T09:23:24;102444.97;;;24.38;100.00
37878;BME280;23715;53.652;8.516;2023-08-21T09:28:21;102444.80;;;24.16;100.00
37878;BME280;23715;53.652;8.516;2023-08-21T09:33:23;102452.93;;;23.47;100.00
37878;BME280;23715;53.652;8.516;2023-08-21T09:38:25;102442.64;;;24.30;100.00
37878;BME280;23715;53.652;8.516;2023-08-21T09:43:26;102437.13;;;24.72;100.00
37878;BME280;23715;53.652;8.516;2023-08-21T09:48:29;102444.32;;;24.73;100.00
37878;BME280;23715;53.652;8.516;2023-08-21T09:53:30;102427.47;;;24.58;100.00
37878;BME280;23715;53.652;8.516;2023-08-21T09:58:31;102422.47;;;23.61;100.00
37878;BME280;23715;53.652;8.516;2023-08-21T10:03:32;102422.47;;;23.61;100.00
37878;BME280;23715;53.652;8.516;2023-08-21T10:08:40;102435.61;;;24.05;100.00
37878;BME280;23715;53.652;8.516;2023-08-21T10:13:41;102429.61;;;24.24;100.00
37878;BME280;23715;53.652;8.516;2023-08-21T10:18:43;102433.49;;;24.11;100.00
37878;BME280;23715;53.652;8.516;2023-08-21T10:23:49;102433.35;;;24.08;100.00
37878;BME280;23715;53.652;8.516;2023-08-21T10:29:02;102432.55;;;24.04;100.00
37878;BME280;23715;53.652;8.516;2023-08-21T10:34:09;102432.19;;;24.03;100.00
37878;BME280;23715;53.652;8.516;2023-08-21T10:39:20;102423.88;;;24.57;100.00
37878;BME280;23715;53.652;8.516;2023-08-21T10:50:02;102416.30;;;25.19;100.00
37878;BME280;23715;53.652;8.516;2023-08-21T10:55:06;102423.99;;;24.79;100.00
37878;BME280;23715;53.652;8.516;2023-08-21T11:00:09;102421.95;;;25.25;100.00
37878;BME280;23715;53.652;8.516;2023-08-21T11:05:11;102420.72;;;25.64;100.00
37878;BME280;23715;53.652;8.516;2023-08-21T11:10:22;102421.49;;;25.84;100.00
37878;BME280;23715;53.652;8.516;2023-08-21T11:15:16;102429.45;;;24.98;100.00
37878;BME280;23715;53.652;8.516;2023-08-21T11:20:18;102419.28;;;25.68;100.00
37878;BME280;23715;53.652;8.516;2023-08-21T11:25:19;102420.06;;;25.62;100.00
37878;BME280;23715;53.652;8.516;2023-08-21T11:30:23;102429.56;;;25.34;100.00
37878;BME280;23715;53.652;8.516;2023-08-21T11:35:27;102419.70;;;25.87;100.00
37878;BME280;23715;53.652;8.516;2023-08-21T11:40:26;102418.42;;;26.04;100.00
37878;BME280;23715;53.652;8.516;2023-08-21T11:45:27;102418.62;;;26.24;100.00
37878;BME280;23715;53.652;8.516;2023-08-21T11:50:32;102415.89;;;26.03;100.00
37878;BME280;23715;53.652;8.516;2023-08-21T11:55:30;102424.43;;;25.01;100.00
37878;BME280;23715;53.652;8.516;2023-08-21T12:00:30;102424.48;;;25.27;100.00
37878;BME280;23715;53.652;8.516;2023-08-21T12:05:31;102429.89;;;25.50;100.00
37878;BME280;23715;53.652;8.516;2023-08-21T12:10:32;102416.59;;;26.22;100.00
37878;BME280;23715;53.652;8.516;2023-08-21T12:15:32;102423.41;;;25.58;100.00
37878;BME280;23715;53.652;8.516;2023-08-21T12:20:34;102422.81;;;25.62;100.00
37878;BME280;23715;53.652;8.516;2023-08-21T12:25:34;102403.80;;;26.04;100.00
37878;BME280;23715;53.652;8.516;2023-08-21T12:30:34;102416.30;;;26.39;100.00
37878;BME280;23715;53.652;8.516;2023-08-21T12:35:38;102415.80;;;26.39;100.00
37878;BME280;23715;53.652;8.516;2023-08-21T12:40:39;102410.39;;;26.42;100.00
37878;BME280;23715;53.652;8.516;2023-08-21T12:45:39;102405.75;;;26.10;100.00
37878;BME280;23715;53.652;8.516;2023-08-21T12:50:40;102396.83;;;26.08;100.00
37878;BME280;23715;53.652;8.516;2023-08-21T12:55:40;102393.81;;;26.14;100.00
37878;BME280;23715;53.652;8.516;2023-08-21T13:00:41;102403.34;;;26.72;100.00
37878;BME280;23715;53.652;8.516;2023-08-21T13:05:42;102391.42;;;26.71;100.00
37878;BME280;23715;53.652;8.516;2023-08-21T13:10:42;102388.87;;;27.04;100.00
37878;BME280;23715;53.652;8.516;2023-08-21T13:15:42;102384.33;;;27.07;100.00
37878;BME280;23715;53.652;8.516;2023-08-21T13:20:45;102381.83;;;27.19;100.00
37878;BME280;23715;53.652;8.516;2023-08-21T13:25:45;102380.45;;;27.19;100.00
37878;BME280;23715;53.652;8.516;2023-08-21T13:30:46;102363.42;;;27.33;100.00
37878;BME280;23715;53.652;8.516;2023-08-21T13:35:46;102358.98;;;27.39;100.00
37878;BME280;23715;53.652;8.516;2023-08-21T13:40:46;102365.23;;;27.30;100.00
37878;BME280;23715;53.652;8.516;2023-08-21T13:45:47;102376.95;;;26.62;100.00
37878;BME280;23715;53.652;8.516;2023-08-21T13:50:49;102370.83;;;27.26;100.00
37878;BME280;23715;53.652;8.516;2023-08-21T13:55:51;102370.67;;;26.75;100.00
37878;BME280;23715;53.652;8.516;2023-08-21T14:00:51;102357.99;;;27.29;100.00
37878;BME280;23715;53.652;8.516;2023-08-21T14:05:51;102371.10;;;26.96;100.00
37878;BME280;23715;53.652;8.516;2023-08-21T14:10:53;102378.13;;;26.64;100.00
37878;BME280;23715;53.652;8.516;2023-08-21T14:15:53;102369.22;;;26.01;100.00
37878;BME280;23715;53.652;8.516;2023-08-21T14:20:53;102368.13;;;26.52;100.00
37878;BME280;23715;53.652;8.516;2023-08-21T14:25:54;102354.75;;;27.19;100.00
37878;BME280;23715;53.652;8.516;2023-08-21T14:30:54;102351.59;;;27.04;100.00
37878;BME280;23715;53.652;8.516;2023-08-21T14:35:55;102342.72;;;27.16;100.00
37878;BME280;23715;53.652;8.516;2023-08-21T14:40:56;102341.69;;;26.99;100.00
37878;BME280;23715;53.652;8.516;2023-08-21T14:46:00;102327.78;;;27.21;100.00
37878;BME280;23715;53.652;8.516;2023-08-21T14:51:00;102327.92;;;27.06;100.00
37878;BME280;23715;53.652;8.516;2023-08-21T14:56:00;102298.89;;;27.61;100.00
37878;BME280;23715;53.652;8.516;2023-08-21T15:01:01;102306.86;;;27.73;100.00
37878;BME280;23715;53.652;8.516;2023-08-21T15:06:02;102315.66;;;26.56;100.00
37878;BME280;23715;53.652;8.516;2023-08-21T15:11:04;102292.34;;;27.31;100.00
37878;BME280;23715;53.652;8.516;2023-08-21T15:16:04;102286.70;;;27.79;100.00
37878;BME280;23715;53.652;8.516;2023-08-21T15:21:05;102285.84;;;27.85;100.00
37878;BME280;23715;53.652;8.516;2023-08-21T15:26:07;102282.88;;;27.94;100.00
37878;BME280;23715;53.652;8.516;2023-08-21T15:31:07;102281.05;;;27.70;100.00
37878;BME280;23715;53.652;8.516;2023-08-21T15:36:07;102280.55;;;27.26;100.00
37878;BME280;23715;53.652;8.516;2023-08-21T15:41:10;102277.66;;;27.81;100.00
37878;BME280;23715;53.652;8.516;2023-08-21T15:46:12;102283.68;;;27.48;100.00
37878;BME280;23715;53.652;8.516;2023-08-21T15:51:12;102283.55;;;27.45;100.00
37878;BME280;23715;53.652;8.516;2023-08-21T15:56:14;102279.84;;;27.72;100.00
37878;BME280;23715;53.652;8.516;2023-08-21T16:01:15;102279.84;;;27.49;100.00
37878;BME280;23715;53.652;8.516;2023-08-21T16:06:16;102271.98;;;27.45;100.00
37878;BME280;23715;53.652;8.516;2023-08-21T16:11:17;102263.24;;;27.29;100.00
37878;BME280;23715;53.652;8.516;2023-08-21T16:16:17;102268.59;;;27.63;100.00
37878;BME280;23715;53.652;8.516;2023-08-21T16:21:17;102260.64;;;27.64;100.00
37878;BME280;23715;53.652;8.516;2023-08-21T16:26:18;102257.36;;;27.72;100.00
37878;BME280;23715;53.652;8.516;2023-08-21T16:31:18;102253.80;;;27.40;100.00
37878;BME280;23715;53.652;8.516;2023-08-21T16:36:18;102255.23;;;27.23;100.00
37878;BME280;23715;53.652;8.516;2023-08-21T16:41:18;102244.23;;;27.36;100.00
37878;BME280;23715;53.652;8.516;2023-08-21T16:46:19;102244.23;;;27.36;100.00
37878;BME280;23715;53.652;8.516;2023-08-21T16:51:19;102235.28;;;27.28;100.00
37878;BME280;23715;53.652;8.516;2023-08-21T16:56:19;102232.47;;;27.14;100.00
37878;BME280;23715;53.652;8.516;2023-08-21T17:01:19;102217.38;;;27.03;100.00
37878;BME280;23715;53.652;8.516;2023-08-21T17:06:20;102220.81;;;27.19;100.00
37878;BME280;23715;53.652;8.516;2023-08-21T17:11:22;102227.81;;;27.21;100.00
37878;BME280;23715;53.652;8.516;2023-08-21T17:16:23;102229.38;;;27.06;100.00
37878;BME280;23715;53.652;8.516;2023-08-21T17:21:23;102236.00;;;26.88;100.00
37878;BME280;23715;53.652;8.516;2023-08-21T17:26:23;102241.51;;;26.81;100.00
37878;BME280;23715;53.652;8.516;2023-08-21T17:31:27;102235.80;;;26.90;100.00
37878;BME280;23715;53.652;8.516;2023-08-21T17:36:27;102239.50;;;26.86;100.00
37878;BME280;23715;53.652;8.516;2023-08-21T17:41:29;102248.41;;;26.81;100.00
37878;BME280;23715;53.652;8.516;2023-08-21T17:46:31;102245.68;;;26.46;100.00
37878;BME280;23715;53.652;8.516;2023-08-21T17:51:31;102242.59;;;26.28;100.00
37878;BME280;23715;53.652;8.516;2023-08-21T17:56:32;102237.27;;;26.09;100.00
37878;BME280;23715;53.652;8.516;2023-08-21T18:01:34;102232.23;;;26.02;100.00
37878;BME280;23715;53.652;8.516;2023-08-21T18:06:38;102241.26;;;25.78;100.00
37878;BME280;23715;53.652;8.516;2023-08-21T18:11:40;102240.83;;;25.42;100.00
37878;BME280;23715;53.652;8.516;2023-08-21T18:16:42;102234.74;;;25.10;100.00
37878;BME280;23715;53.652;8.516;2023-08-21T18:21:44;102239.44;;;24.95;100.00
37878;BME280;23715;53.652;8.516;2023-08-21T18:26:44;102239.55;;;24.61;100.00
37878;BME280;23715;53.652;8.516;2023-08-21T18:31:46;102247.72;;;24.35;100.00
37878;BME280;23715;53.652;8.516;2023-08-21T18:36:46;102256.59;;;24.27;100.00
37878;BME280;23715;53.652;8.516;2023-08-21T18:41:48;102232.63;;;23.83;100.00
37878;BME280;23715;53.652;8.516;2023-08-21T18:46:49;102256.33;;;23.61;100.00
37878;BME280;23715;53.652;8.516;2023-08-21T18:51:49;102253.42;;;23.35;100.00
37878;BME280;23715;53.652;8.516;2023-08-21T18:56:52;102260.47;;;23.06;100.00
37878;BME280;23715;53.652;8.516;2023-08-21T19:01:52;102269.84;;;22.76;100.00
37878;BME280;23715;53.652;8.516;2023-08-21T19:06:52;102263.88;;;22.73;100.00
37878;BME280;23715;53.652;8.516;2023-08-21T19:11:53;102272.64;;;22.64;100.00
37878;BME280;23715;53.652;8.516;2023-08-21T19:16:55;102277.17;;;22.45;100.00
37878;BME280;23715;53.652;8.516;2023-08-21T19:21:56;102283.34;;;22.34;100.00
37878;BME280;23715;53.652;8.516;2023-08-21T19:26:56;102295.33;;;22.21;100.00
37878;BME280;23715;53.652;8.516;2023-08-21T19:31:56;102300.45;;;22.49;100.00
37878;BME280;23715;53.652;8.516;2023-08-21T19:36:56;102293.27;;;22.23;100.00
37878;BME280;23715;53.652;8.516;2023-08-21T19:41:56;102293.82;;;22.35;100.00
37878;BME280;23715;53.652;8.516;2023-08-21T19:46:57;102298.45;;;21.97;100.00
37878;BME280;23715;53.652;8.516;2023-08-21T19:51:58;102303.08;;;21.72;100.00
37878;BME280;23715;53.652;8.516;2023-08-21T19:56:58;102301.00;;;21.66;100.00
37878;BME280;23715;53.652;8.516;2023-08-21T20:02:02;102308.37;;;21.53;100.00
37878;BME280;23715;53.652;8.516;2023-08-21T20:07:01;102308.53;;;21.60;100.00
37878;BME280;23715;53.652;8.516;2023-08-21T20:12:06;102302.89;;;21.74;100.00
37878;BME280;23715;53.652;8.516;2023-08-21T20:17:05;102302.91;;;21.82;100.00
37878;BME280;23715;53.652;8.516;2023-08-21T20:22:05;102296.14;;;21.35;100.00
37878;BME280;23715;53.652;8.516;2023-08-21T20:27:07;102307.77;;;21.33;100.00
37878;BME280;23715;53.652;8.516;2023-08-21T20:32:09;102298.11;;;21.63;100.00
37878;BME280;23715;53.652;8.516;2023-08-21T20:37:09;102290.91;;;21.54;100.00
37878;BME280;23715;53.652;8.516;2023-08-21T20:42:10;102288.09;;;21.21;100.00
37878;BME280;23715;53.652;8.516;2023-08-21T20:47:10;102288.09;;;21.21;100.00
37878;BME280;23715;53.652;8.516;2023-08-21T20:52:10;102295.24;;;21.14;100.00
37878;BME280;23715;53.652;8.516;2023-08-21T20:57:10;102297.98;;;21.22;100.00
37878;BME280;23715;53.652;8.516;2023-08-21T21:02:10;102292.57;;;20.84;100.00
37878;BME280;23715;53.652;8.516;2023-08-21T21:07:10;102298.20;;;20.82;100.00
37878;BME280;23715;53.652;8.516;2023-08-21T21:12:10;102292.70;;;20.74;100.00
37878;BME280;23715;53.652;8.516;2023-08-21T21:17:10;102295.14;;;20.85;100.00
37878;BME280;23715;53.652;8.516;2023-08-21T21:22:11;102280.98;;;20.94;100.00
37878;BME280;23715;53.652;8.516;2023-08-21T21:27:11;102289.98;;;20.78;100.00
37878;BME280;23715;53.652;8.516;2023-08-21T21:32:11;102282.32;;;20.86;100.00
37878;BME280;23715;53.652;8.516;2023-08-21T21:37:13;102276.72;;;20.96;100.00
37878;BME280;23715;53.652;8.516;2023-08-21T21:42:13;102271.22;;;20.83;100.00
37878;BME280;23715;53.652;8.516;2023-08-21T21:47:14;102266.85;;;20.60;100.00
37878;BME280;23715;53.652;8.516;2023-08-21T21:52:14;102274.92;;;20.70;100.00
37878;BME280;23715;53.652;8.516;2023-08-21T21:57:14;102269.06;;;20.61;100.00
37878;BME280;23715;53.652;8.516;2023-08-21T22:02:14;102275.53;;;20.60;100.00
37878;BME280;23715;53.652;8.516;2023-08-21T22:07:14;102271.44;;;20.60;100.00
37878;BME280;23715;53.652;8.516;2023-08-21T22:12:14;102286.78;;;20.04;100.00
37878;BME280;23715;53.652;8.516;2023-08-21T22:17:17;102286.78;;;20.04;100.00
37878;BME280;23715;53.652;8.516;2023-08-21T22:22:18;102279.23;;;19.98;100.00
37878;BME280;23715;53.652;8.516;2023-08-21T22:27:18;102273.26;;;19.99;100.00
37878;BME280;23715;53.652;8.516;2023-08-21T22:32:19;102273.18;;;19.86;100.00
37878;BME280;23715;53.652;8.516;2023-08-21T22:37:18;102276.92;;;20.07;100.00
37878;BME280;23715;53.652;8.516;2023-08-21T22:42:18;102260.81;;;20.00;100.00
37878;BME280;23715;53.652;8.516;2023-08-21T22:47:18;102260.08;;;20.20;100.00
37878;BME280;23715;53.652;8.516;2023-08-21T22:52:19;102265.92;;;20.25;100.00
37878;BME280;23715;53.652;8.516;2023-08-21T22:57:19;102265.23;;;20.23;100.00
37878;BME280;23715;53.652;8.516;2023-08-21T23:02:20;102275.98;;;20.21;100.00
37878;BME280;23715;53.652;8.516;2023-08-21T23:07:19;102253.99;;;20.00;100.00
37878;BME280;23715;53.652;8.516;2023-08-21T23:12:20;102255.46;;;19.91;100.00
37878;BME280;23715;53.652;8.516;2023-08-21T23:17:20;102249.27;;;20.11;100.00
37878;BME280;23715;53.652;8.516;2023-08-21T23:22:20;102242.38;;;19.76;100.00
37878;BME280;23715;53.652;8.516;2023-08-21T23:27:20;102244.83;;;19.65;100.00
37878;BME280;23715;53.652;8.516;2023-08-21T23:32:20;102237.94;;;19.75;100.00
37878;BME280;23715;53.652;8.516;2023-08-21T23:37:21;102241.67;;;19.74;100.00
37878;BME280;23715;53.652;8.516;2023-08-21T23:42:21;102229.18;;;19.31;100.00
37878;BME280;23715;53.652;8.516;2023-08-21T23:47:21;102231.07;;;19.17;100.00
37878;BME280;23715;53.652;8.516;2023-08-21T23:52:22;102220.53;;;19.18;100.00
37878;BME280;23715;53.652;8.516;2023-08-21T23:57:23;102237.88;;;18.99;100.00
